sensor_id;sensor_type;location;lat;lon;timestamp;pressure;altitude;pressure_sealevel;temperature;humidity
6425;BME280;12193;42.642;23.384;2024-03-02T00:02:06;93891.09;;;7.56;100.00
6425;BME280;12193;42.642;23.384;2024-03-02T00:04:35;93891.50;;;7.59;100.00
6425;BME280;12193;42.642;23.384;2024-03-02T00:07:07;93898.84;;;7.62;100.00
6425;BME280;12193;42.642;23.384;2024-03-02T00:09:37;93896.88;;;7.64;100.00
6425;BME280;12193;42.642;23.384;2024-03-02T00:12:06;93893.28;;;7.65;100.00
6425;BME280;12193;42.642;23.384;2024-03-02T00:14:36;93895.50;;;7.62;100.00
6425;BME280;12193;42.642;23.384;2024-03-02T00:17:08;93902.66;;;7.66;100.00
6425;BME280;12193;42.642;23.384;2024-03-02T00:19:47;93891.50;;;7.66;100.00
6425;BME280;12193;42.642;23.384;2024-03-02T00:22:19;93891.09;;;7.62;100.00
6425;BME280;12193;42.642;23.384;2024-03-02T00:24:48;93879.16;;;7.61;100.00
6425;BME280;12193;42.642;23.384;2024-03-02T00:27:19;93884.34;;;7.68;100.00
6425;BME280;12193;42.642;23.384;2024-03-02T00:29:51;93890.72;;;7.65;100.00
6425;BME280;12193;42.642;23.384;2024-03-02T00:32:23;93883.56;;;7.67;100.00
6425;BME280;12193;42.642;23.384;2024-03-02T00:34:54;93876.19;;;7.71;100.00
6425;BME280;12193;42.642;23.384;2024-03-02T00:37:26;93870.81;;;7.66;100.00
6425;BME280;12193;42.642;23.384;2024-03-02T00:39:55;93866.63;;;7.58;100.00
6425;BME280;12193;42.642;23.384;2024-03-02T00:42:24;93875.59;;;7.62;100.00
6425;BME280;12193;42.642;23.384;2024-03-02T00:44:53;93869.03;;;7.60;100.00
6425;BME280;12193;42.642;23.384;2024-03-02T00:47:22;93857.28;;;7.57;100.00
6425;BME280;12193;42.642;23.384;2024-03-02T00:49:52;93853.69;;;7.65;100.00
6425;BME280;12193;42.642;23.384;2024-03-02T00:52:21;93858.28;;;7.63;100.00
6425;BME280;12193;42.642;23.384;2024-03-02T00:54:53;93864.84;;;7.65;100.00
6425;BME280;12193;42.642;23.384;2024-03-02T00:57:34;93855.91;;;7.81;100.00
6425;BME280;12193;42.642;23.384;2024-03-02T01:00:04;93853.91;;;7.89;100.00
6425;BME280;12193;42.642;23.384;2024-03-02T01:02:35;93845.94;;;7.91;100.00
6425;BME280;12193;42.642;23.384;2024-03-02T01:05:05;93849.31;;;7.85;100.00
6425;BME280;12193;42.642;23.384;2024-03-02T04:08:21;93817.47;;;7.65;100.00
6425;BME280;12193;42.642;23.384;2024-03-02T04:10:51;93818.31;;;7.59;100.00
6425;BME280;12193;42.642;23.384;2024-03-02T04:13:20;93819.69;;;7.61;100.00
6425;BME280;12193;42.642;23.384;2024-03-02T04:15:50;93816.50;;;7.59;100.00
6425;BME280;12193;42.642;23.384;2024-03-02T04:18:19;93818.09;;;7.60;100.00
6425;BME280;12193;42.642;23.384;2024-03-02T04:20:48;93816.13;;;7.56;100.00
6425;BME280;12193;42.642;23.384;2024-03-02T04:23:20;93815.31;;;7.62;100.00
6425;BME280;12193;42.642;23.384;2024-03-02T04:25:49;93820.28;;;7.44;100.00
6425;BME280;12193;42.642;23.384;2024-03-02T04:28:19;93819.50;;;7.43;100.00
6425;BME280;12193;42.642;23.384;2024-03-02T04:30:48;93823.88;;;7.56;100.00
6425;BME280;12193;42.642;23.384;2024-03-02T04:33:17;93822.28;;;7.61;100.00
6425;BME280;12193;42.642;23.384;2024-03-02T04:35:46;93819.28;;;7.71;100.00
6425;BME280;12193;42.642;23.384;2024-03-02T04:38:15;93818.91;;;7.67;100.00
6425;BME280;12193;42.642;23.384;2024-03-02T04:40:47;93824.06;;;7.74;100.00
6425;BME280;12193;42.642;23.384;2024-03-02T04:43:17;93821.28;;;7.69;100.00
6425;BME280;12193;42.642;23.384;2024-03-02T04:45:46;93818.91;;;7.67;100.00
6425;BME280;12193;42.642;23.384;2024-03-02T04:48:15;93829.63;;;7.71;100.00
6425;BME280;12193;42.642;23.384;2024-03-02T04:50:45;93826.63;;;7.80;100.00
6425;BME280;12193;42.642;23.384;2024-03-02T04:53:14;93826.66;;;7.74;100.00
6425;BME280;12193;42.642;23.384;2024-03-02T04:55:43;93831.81;;;7.74;100.00
6425;BME280;12193;42.642;23.384;2024-03-02T04:58:48;93836.78;;;7.75;100.00
6425;BME280;12193;42.642;23.384;2024-03-02T05:01:17;93832.03;;;7.79;100.00
6425;BME280;12193;42.642;23.384;2024-03-02T05:03:47;93823.66;;;7.57;100.00
6425;BME280;12193;42.642;23.384;2024-03-02T05:06:16;93832.00;;;7.59;100.00
6425;BME280;12193;42.642;23.384;2024-03-02T05:08:46;93836.97;;;7.54;100.00
6425;BME280;12193;42.642;23.384;2024-03-02T05:11:15;93839.56;;;7.35;100.00
6425;BME280;12193;42.642;23.384;2024-03-02T05:13:59;93837.75;;;7.35;100.00
6425;BME280;12193;42.642;23.384;2024-03-02T05:16:28;93840.56;;;7.34;100.00
6425;BME280;12193;42.642;23.384;2024-03-02T05:18:57;93842.38;;;7.46;100.00
6425;BME280;12193;42.642;23.384;2024-03-02T05:21:26;93839.38;;;7.43;100.00
6425;BME280;12193;42.642;23.384;2024-03-02T05:23:55;93846.53;;;7.47;100.00
6425;BME280;12193;42.642;23.384;2024-03-02T05:26:25;93847.53;;;7.46;100.00
6425;BME280;12193;42.642;23.384;2024-03-02T05:28:54;93852.31;;;7.49;100.00
6425;BME280;12193;42.642;23.384;2024-03-02T05:31:26;93855.47;;;7.45;100.00
6425;BME280;12193;42.642;23.384;2024-03-02T05:33:55;93859.03;;;7.37;100.00
6425;BME280;12193;42.642;23.384;2024-03-02T05:36:24;93862.63;;;7.36;100.00
6425;BME280;12193;42.642;23.384;2024-03-02T05:38:53;93851.50;;;7.36;100.00
6425;BME280;12193;42.642;23.384;2024-03-02T05:41:22;93865.63;;;7.33;100.00
6425;BME280;12193;42.642;23.384;2024-03-02T05:43:52;93863.03;;;7.33;100.00
6425;BME280;12193;42.642;23.384;2024-03-02T05:46:21;93872.78;;;7.31;100.00
6425;BME280;12193;42.642;23.384;2024-03-02T05:48:52;93879.94;;;7.29;100.00
6425;BME280;12193;42.642;23.384;2024-03-02T05:51:22;93871.56;;;7.34;100.00
6425;BME280;12193;42.642;23.384;2024-03-02T05:53:51;93874.56;;;7.37;100.00
6425;BME280;12193;42.642;23.384;2024-03-02T05:56:20;93869.00;;;7.34;100.00
6425;BME280;12193;42.642;23.384;2024-03-02T05:58:49;93878.94;;;7.43;100.00
6425;BME280;12193;42.642;23.384;2024-03-02T06:01:33;93887.69;;;7.36;100.00
6425;BME280;12193;42.642;23.384;2024-03-02T06:04:05;93871.34;;;7.22;100.00
6425;BME280;12193;42.642;23.384;2024-03-02T06:06:34;93884.66;;;7.26;100.00
6425;BME280;12193;42.642;23.384;2024-03-02T06:09:04;93878.72;;;7.19;100.00
6425;BME280;12193;42.642;23.384;2024-03-02T06:11:39;93881.69;;;7.16;100.00
6425;BME280;12193;42.642;23.384;2024-03-02T06:14:09;93875.69;;;7.09;100.00
6425;BME280;12193;42.642;23.384;2024-03-02T06:16:38;93877.69;;;7.14;100.00
6425;BME280;12193;42.642;23.384;2024-03-02T06:19:10;93872.72;;;7.25;100.00
6425;BME280;12193;42.642;23.384;2024-03-02T06:21:39;93883.28;;;7.17;100.00
6425;BME280;12193;42.642;23.384;2024-03-02T06:24:08;93883.25;;;7.11;100.00
6425;BME280;12193;42.642;23.384;2024-03-02T06:26:38;93885.00;;;6.97;100.00
6425;BME280;12193;42.642;23.384;2024-03-02T06:29:07;93881.66;;;7.03;100.00
6425;BME280;12193;42.642;23.384;2024-03-02T06:31:36;93888.75;;;6.95;100.00
6425;BME280;12193;42.642;23.384;2024-03-02T06:34:05;93893.34;;;6.93;100.00
6425;BME280;12193;42.642;23.384;2024-03-02T06:36:38;93887.75;;;6.89;100.00
6425;BME280;12193;42.642;23.384;2024-03-02T06:39:06;93889.53;;;6.89;100.00
6425;BME280;12193;42.642;23.384;2024-03-02T06:41:36;93894.50;;;6.90;100.00
6425;BME280;12193;42.642;23.384;2024-03-02T06:44:05;93887.38;;;6.92;100.00
6425;BME280;12193;42.642;23.384;2024-03-02T06:46:35;93893.91;;;6.95;100.00
6425;BME280;12193;42.642;23.384;2024-03-02T06:49:04;93887.19;;;7.00;100.00
6425;BME280;12193;42.642;23.384;2024-03-02T06:51:34;59546.94;;;-140.48;100.00
6425;BME280;12193;42.642;23.384;2024-03-02T06:54:06;59546.94;;;-140.48;100.00
6425;BME280;12193;42.642;23.384;2024-03-02T06:56:35;59546.94;;;-140.48;100.00
6425;BME280;12193;42.642;23.384;2024-03-02T06:59:05;59546.94;;;-140.48;100.00
6425;BME280;12193;42.642;23.384;2024-03-02T07:01:34;59546.94;;;-140.48;100.00
6425;BME280;12193;42.642;23.384;2024-03-02T07:04:03;59546.94;;;-140.48;100.00
6425;BME280;12193;42.642;23.384;2024-03-02T07:06:33;59546.94;;;-140.48;100.00
6425;BME280;12193;42.642;23.384;2024-03-02T07:09:05;59546.94;;;-140.48;100.00
6425;BME280;12193;42.642;23.384;2024-03-02T07:11:36;59546.94;;;-140.48;100.00
6425;BME280;12193;42.642;23.384;2024-03-02T07:14:06;59546.94;;;-140.48;100.00
6425;BME280;12193;42.642;23.384;2024-03-02T07:16:37;59546.94;;;-140.48;100.00
6425;BME280;12193;42.642;23.384;2024-03-02T07:19:07;59546.94;;;-140.48;100.00
6425;BME280;12193;42.642;23.384;2024-03-02T07:21:36;59546.94;;;-140.48;100.00
6425;BME280;12193;42.642;23.384;2024-03-02T07:24:08;59546.94;;;-140.48;100.00
6425;BME280;12193;42.642;23.384;2024-03-02T07:26:39;59546.94;;;-140.48;100.00
6425;BME280;12193;42.642;23.384;2024-03-02T07:29:09;59546.94;;;-140.48;100.00
6425;BME280;12193;42.642;23.384;2024-03-02T07:31:38;59546.94;;;-140.48;100.00
6425;BME280;12193;42.642;23.384;2024-03-02T07:34:08;59546.94;;;-140.48;100.00
6425;BME280;12193;42.642;23.384;2024-03-02T07:36:37;59546.94;;;-140.48;100.00
6425;BME280;12193;42.642;23.384;2024-03-02T07:39:09;59546.94;;;-140.48;100.00
6425;BME280;12193;42.642;23.384;2024-03-02T07:41:38;59546.94;;;-140.48;100.00
6425;BME280;12193;42.642;23.384;2024-03-02T07:44:07;59546.94;;;-140.48;100.00
6425;BME280;12193;42.642;23.384;2024-03-02T07:46:43;59546.94;;;-140.48;100.00
6425;BME280;12193;42.642;23.384;2024-03-02T07:49:13;59546.94;;;-140.48;100.00
6425;BME280;12193;42.642;23.384;2024-03-02T07:51:42;59546.94;;;-140.48;100.00
6425;BME280;12193;42.642;23.384;2024-03-02T07:54:14;59546.94;;;-140.48;100.00
6425;BME280;12193;42.642;23.384;2024-03-02T07:56:44;59546.94;;;-140.48;100.00
6425;BME280;12193;42.642;23.384;2024-03-02T07:59:14;59546.94;;;-140.48;100.00
6425;BME280;12193;42.642;23.384;2024-03-02T08:01:43;59546.94;;;-140.48;100.00
6425;BME280;12193;42.642;23.384;2024-03-02T08:04:13;59546.94;;;-140.48;100.00
6425;BME280;12193;42.642;23.384;2024-03-02T08:06:42;59546.94;;;-140.48;100.00
6425;BME280;12193;42.642;23.384;2024-03-02T08:09:14;59546.94;;;-140.48;100.00
6425;BME280;12193;42.642;23.384;2024-03-02T08:11:43;59546.94;;;-140.48;100.00
6425;BME280;12193;42.642;23.384;2024-03-02T08:14:12;59546.94;;;-140.48;100.00
6425;BME280;12193;42.642;23.384;2024-03-02T08:16:41;59546.94;;;-140.48;100.00
6425;BME280;12193;42.642;23.384;2024-03-02T08:19:11;59546.94;;;-140.48;100.00
6425;BME280;12193;42.642;23.384;2024-03-02T08:21:40;59546.94;;;-140.48;100.00
6425;BME280;12193;42.642;23.384;2024-03-02T08:24:09;59546.94;;;-140.48;100.00
6425;BME280;12193;42.642;23.384;2024-03-02T08:26:42;59546.94;;;-140.48;100.00
6425;BME280;12193;42.642;23.384;2024-03-02T08:29:11;59546.94;;;-140.48;100.00
6425;BME280;12193;42.642;23.384;2024-03-02T08:31:40;59546.94;;;-140.48;100.00
6425;BME280;12193;42.642;23.384;2024-03-02T08:34:10;59546.94;;;-140.48;100.00
6425;BME280;12193;42.642;23.384;2024-03-02T08:36:39;59546.94;;;-140.48;100.00
6425;BME280;12193;42.642;23.384;2024-03-02T08:39:08;59546.94;;;-140.48;100.00
6425;BME280;12193;42.642;23.384;2024-03-02T08:41:44;59546.94;;;-140.48;100.00
6425;BME280;12193;42.642;23.384;2024-03-02T08:44:14;59546.94;;;-140.48;100.00
6425;BME280;12193;42.642;23.384;2024-03-02T08:46:43;59546.94;;;-140.48;100.00
6425;BME280;12193;42.642;23.384;2024-03-02T08:49:13;59546.94;;;-140.48;100.00
6425;BME280;12193;42.642;23.384;2024-03-02T08:51:43;59546.94;;;-140.48;100.00
6425;BME280;12193;42.642;23.384;2024-03-02T08:54:20;59546.94;;;-140.48;100.00
6425;BME280;12193;42.642;23.384;2024-03-02T08:56:52;59546.94;;;-140.48;100.00
6425;BME280;12193;42.642;23.384;2024-03-02T08:59:22;59546.94;;;-140.48;100.00
6425;BME280;12193;42.642;23.384;2024-03-02T09:01:51;59546.94;;;-140.48;100.00
6425;BME280;12193;42.642;23.384;2024-03-02T09:04:20;59546.94;;;-140.48;100.00
6425;BME280;12193;42.642;23.384;2024-03-02T09:06:49;59546.94;;;-140.48;100.00
6425;BME280;12193;42.642;23.384;2024-03-02T09:09:19;59546.94;;;-140.48;100.00
6425;BME280;12193;42.642;23.384;2024-03-02T09:11:48;59546.94;;;-140.48;100.00
6425;BME280;12193;42.642;23.384;2024-03-02T09:14:20;59546.94;;;-140.48;100.00
6425;BME280;12193;42.642;23.384;2024-03-02T09:16:49;59546.94;;;-140.48;100.00
6425;BME280;12193;42.642;23.384;2024-03-02T09:19:18;59546.94;;;-140.48;100.00
6425;BME280;12193;42.642;23.384;2024-03-02T09:21:47;59546.94;;;-140.48;100.00
6425;BME280;12193;42.642;23.384;2024-03-02T09:24:17;59546.94;;;-140.48;100.00
6425;BME280;12193;42.642;23.384;2024-03-02T09:26:46;59546.94;;;-140.48;100.00
6425;BME280;12193;42.642;23.384;2024-03-02T09:29:15;59546.94;;;-140.48;100.00
6425;BME280;12193;42.642;23.384;2024-03-02T09:31:49;59546.94;;;-140.48;100.00
6425;BME280;12193;42.642;23.384;2024-03-02T09:34:18;59546.94;;;-140.48;100.00
6425;BME280;12193;42.642;23.384;2024-03-02T09:36:48;59546.94;;;-140.48;100.00
6425;BME280;12193;42.642;23.384;2024-03-02T09:39:19;59546.94;;;-140.48;100.00
6425;BME280;12193;42.642;23.384;2024-03-02T09:41:48;59546.94;;;-140.48;100.00
6425;BME280;12193;42.642;23.384;2024-03-02T09:44:18;59546.94;;;-140.48;100.00
6425;BME280;12193;42.642;23.384;2024-03-02T09:46:52;59546.94;;;-140.48;100.00
6425;BME280;12193;42.642;23.384;2024-03-02T09:49:21;59546.94;;;-140.48;100.00
6425;BME280;12193;42.642;23.384;2024-03-02T09:51:50;59546.94;;;-140.48;100.00
6425;BME280;12193;42.642;23.384;2024-03-02T09:54:19;59546.94;;;-140.48;100.00
6425;BME280;12193;42.642;23.384;2024-03-02T09:56:49;59546.94;;;-140.48;100.00
6425;BME280;12193;42.642;23.384;2024-03-02T09:59:19;59546.94;;;-140.48;100.00
6425;BME280;12193;42.642;23.384;2024-03-02T10:02:02;59546.94;;;-140.48;100.00
6425;BME280;12193;42.642;23.384;2024-03-02T10:04:33;59546.94;;;-140.48;100.00
6425;BME280;12193;42.642;23.384;2024-03-02T10:07:11;59546.94;;;-140.48;100.00
6425;BME280;12193;42.642;23.384;2024-03-02T10:09:42;59546.94;;;-140.48;100.00
6425;BME280;12193;42.642;23.384;2024-03-02T10:12:12;59546.94;;;-140.48;100.00
6425;BME280;12193;42.642;23.384;2024-03-02T10:14:42;59546.94;;;-140.48;100.00
6425;BME280;12193;42.642;23.384;2024-03-02T10:17:16;59546.94;;;-140.48;100.00
6425;BME280;12193;42.642;23.384;2024-03-02T10:19:46;59546.94;;;-140.48;100.00
6425;BME280;12193;42.642;23.384;2024-03-02T10:22:15;59546.94;;;-140.48;100.00
6425;BME280;12193;42.642;23.384;2024-03-02T10:24:44;59546.94;;;-140.48;100.00
6425;BME280;12193;42.642;23.384;2024-03-02T10:27:17;59546.94;;;-140.48;100.00
6425;BME280;12193;42.642;23.384;2024-03-02T10:29:47;59546.94;;;-140.48;100.00
6425;BME280;12193;42.642;23.384;2024-03-02T10:32:22;59546.94;;;-140.48;100.00
6425;BME280;12193;42.642;23.384;2024-03-02T10:34:51;59546.94;;;-140.48;100.00
6425;BME280;12193;42.642;23.384;2024-03-02T10:37:21;59546.94;;;-140.48;100.00
6425;BME280;12193;42.642;23.384;2024-03-02T10:39:52;59546.94;;;-140.48;100.00
6425;BME280;12193;42.642;23.384;2024-03-02T10:42:22;59546.94;;;-140.48;100.00
6425;BME280;12193;42.642;23.384;2024-03-02T10:44:52;59546.94;;;-140.48;100.00
6425;BME280;12193;42.642;23.384;2024-03-02T10:47:26;59546.94;;;-140.48;100.00
6425;BME280;12193;42.642;23.384;2024-03-02T10:49:56;59546.94;;;-140.48;100.00
6425;BME280;12193;42.642;23.384;2024-03-02T10:52:28;59546.94;;;-140.48;100.00
6425;BME280;12193;42.642;23.384;2024-03-02T10:54:57;59546.94;;;-140.48;100.00
6425;BME280;12193;42.642;23.384;2024-03-02T10:57:27;59546.94;;;-140.48;100.00
6425;BME280;12193;42.642;23.384;2024-03-02T11:00:03;59546.94;;;-140.48;100.00
6425;BME280;12193;42.642;23.384;2024-03-02T11:02:42;59546.94;;;-140.48;100.00
6425;BME280;12193;42.642;23.384;2024-03-02T11:05:21;59546.94;;;-140.48;100.00
6425;BME280;12193;42.642;23.384;2024-03-02T11:07:53;59546.94;;;-140.48;100.00
6425;BME280;12193;42.642;23.384;2024-03-02T11:10:27;59546.94;;;-140.48;100.00
6425;BME280;12193;42.642;23.384;2024-03-02T11:13:00;59546.94;;;-140.48;100.00
6425;BME280;12193;42.642;23.384;2024-03-02T11:15:31;59546.94;;;-140.48;100.00
6425;BME280;12193;42.642;23.384;2024-03-02T11:18:07;59546.94;;;-140.48;100.00
6425;BME280;12193;42.642;23.384;2024-03-02T11:20:38;59546.94;;;-140.48;100.00
6425;BME280;12193;42.642;23.384;2024-03-02T11:23:08;59546.94;;;-140.48;100.00
6425;BME280;12193;42.642;23.384;2024-03-02T11:25:38;59546.94;;;-140.48;100.00
6425;BME280;12193;42.642;23.384;2024-03-02T11:28:08;59546.94;;;-140.48;100.00
6425;BME280;12193;42.642;23.384;2024-03-02T11:30:51;59546.94;;;-140.48;100.00
6425;BME280;12193;42.642;23.384;2024-03-02T11:33:27;59546.94;;;-140.48;100.00
6425;BME280;12193;42.642;23.384;2024-03-02T11:35:57;59546.94;;;-140.48;100.00
6425;BME280;12193;42.642;23.384;2024-03-02T11:38:33;59546.94;;;-140.48;100.00
6425;BME280;12193;42.642;23.384;2024-03-02T11:41:06;59546.94;;;-140.48;100.00
6425;BME280;12193;42.642;23.384;2024-03-02T11:43:38;59546.94;;;-140.48;100.00
6425;BME280;12193;42.642;23.384;2024-03-02T11:46:08;59546.94;;;-140.48;100.00
6425;BME280;12193;42.642;23.384;2024-03-02T11:48:41;59546.94;;;-140.48;100.00
6425;BME280;12193;42.642;23.384;2024-03-02T11:51:11;59546.94;;;-140.48;100.00
6425;BME280;12193;42.642;23.384;2024-03-02T11:53:40;59546.94;;;-140.48;100.00
6425;BME280;12193;42.642;23.384;2024-03-02T11:56:12;59546.94;;;-140.48;100.00
6425;BME280;12193;42.642;23.384;2024-03-02T11:58:42;59546.94;;;-140.48;100.00
6425;BME280;12193;42.642;23.384;2024-03-02T12:01:14;59546.94;;;-140.48;100.00
6425;BME280;12193;42.642;23.384;2024-03-02T12:03:45;59546.94;;;-140.48;100.00
6425;BME280;12193;42.642;23.384;2024-03-02T12:06:15;59546.94;;;-140.48;100.00
6425;BME280;12193;42.642;23.384;2024-03-02T12:08:45;59546.94;;;-140.48;100.00
6425;BME280;12193;42.642;23.384;2024-03-02T12:11:14;59546.94;;;-140.48;100.00
6425;BME280;12193;42.642;23.384;2024-03-02T12:13:52;59546.94;;;-140.48;100.00
6425;BME280;12193;42.642;23.384;2024-03-02T12:16:23;59546.94;;;-140.48;100.00
6425;BME280;12193;42.642;23.384;2024-03-02T12:18:55;59546.94;;;-140.48;100.00
6425;BME280;12193;42.642;23.384;2024-03-02T12:21:24;59546.94;;;-140.48;100.00
6425;BME280;12193;42.642;23.384;2024-03-02T12:23:54;59546.94;;;-140.48;100.00
6425;BME280;12193;42.642;23.384;2024-03-02T12:26:23;59546.94;;;-140.48;100.00
6425;BME280;12193;42.642;23.384;2024-03-02T12:28:53;59546.94;;;-140.48;100.00
6425;BME280;12193;42.642;23.384;2024-03-02T12:31:23;59546.94;;;-140.48;100.00
6425;BME280;12193;42.642;23.384;2024-03-02T12:33:55;59546.94;;;-140.48;100.00
6425;BME280;12193;42.642;23.384;2024-03-02T12:36:24;59546.94;;;-140.48;100.00
6425;BME280;12193;42.642;23.384;2024-03-02T12:38:54;59546.94;;;-140.48;100.00
6425;BME280;12193;42.642;23.384;2024-03-02T12:41:23;59546.94;;;-140.48;100.00
6425;BME280;12193;42.642;23.384;2024-03-02T12:43:52;59546.94;;;-140.48;100.00
6425;BME280;12193;42.642;23.384;2024-03-02T12:46:22;59546.94;;;-140.48;100.00
6425;BME280;12193;42.642;23.384;2024-03-02T12:48:51;59546.94;;;-140.48;100.00
6425;BME280;12193;42.642;23.384;2024-03-02T12:51:23;59546.94;;;-140.48;100.00
6425;BME280;12193;42.642;23.384;2024-03-02T12:53:57;59546.94;;;-140.48;100.00
6425;BME280;12193;42.642;23.384;2024-03-02T12:56:26;59546.94;;;-140.48;100.00
6425;BME280;12193;42.642;23.384;2024-03-02T12:58:56;59546.94;;;-140.48;100.00
6425;BME280;12193;42.642;23.384;2024-03-02T13:01:26;59546.94;;;-140.48;100.00
6425;BME280;12193;42.642;23.384;2024-03-02T13:03:55;59546.94;;;-140.48;100.00
6425;BME280;12193;42.642;23.384;2024-03-02T13:06:27;59546.94;;;-140.48;100.00
6425;BME280;12193;42.642;23.384;2024-03-02T13:08:57;59546.94;;;-140.48;100.00
6425;BME280;12193;42.642;23.384;2024-03-02T13:11:26;59546.94;;;-140.48;100.00
6425;BME280;12193;42.642;23.384;2024-03-02T13:13:55;59546.94;;;-140.48;100.00
6425;BME280;12193;42.642;23.384;2024-03-02T13:16:25;59546.94;;;-140.48;100.00
6425;BME280;12193;42.642;23.384;2024-03-02T13:18:56;59546.94;;;-140.48;100.00
6425;BME280;12193;42.642;23.384;2024-03-02T13:21:27;59546.94;;;-140.48;100.00
6425;BME280;12193;42.642;23.384;2024-03-02T13:23:57;59546.94;;;-140.48;100.00
6425;BME280;12193;42.642;23.384;2024-03-02T13:26:26;59546.94;;;-140.48;100.00
6425;BME280;12193;42.642;23.384;2024-03-02T13:28:55;59546.94;;;-140.48;100.00
6425;BME280;12193;42.642;23.384;2024-03-02T13:31:24;59546.94;;;-140.48;100.00
6425;BME280;12193;42.642;23.384;2024-03-02T13:33:53;59546.94;;;-140.48;100.00
6425;BME280;12193;42.642;23.384;2024-03-02T13:36:23;59546.94;;;-140.48;100.00
6425;BME280;12193;42.642;23.384;2024-03-02T13:38:55;59546.94;;;-140.48;100.00
6425;BME280;12193;42.642;23.384;2024-03-02T13:41:24;59546.94;;;-140.48;100.00
6425;BME280;12193;42.642;23.384;2024-03-02T13:43:53;59546.94;;;-140.48;100.00
6425;BME280;12193;42.642;23.384;2024-03-02T13:46:23;59546.94;;;-140.48;100.00
6425;BME280;12193;42.642;23.384;2024-03-02T13:48:52;59546.94;;;-140.48;100.00
6425;BME280;12193;42.642;23.384;2024-03-02T13:51:21;59546.94;;;-140.48;100.00
6425;BME280;12193;42.642;23.384;2024-03-02T13:53:51;59546.94;;;-140.48;100.00
6425;BME280;12193;42.642;23.384;2024-03-02T13:56:23;59546.94;;;-140.48;100.00
6425;BME280;12193;42.642;23.384;2024-03-02T13:58:52;59546.94;;;-140.48;100.00
6425;BME280;12193;42.642;23.384;2024-03-02T14:01:21;59546.94;;;-140.48;100.00
6425;BME280;12193;42.642;23.384;2024-03-02T14:03:51;59546.94;;;-140.48;100.00
6425;BME280;12193;42.642;23.384;2024-03-02T14:06:21;59546.94;;;-140.48;100.00
6425;BME280;12193;42.642;23.384;2024-03-02T14:08:52;59546.94;;;-140.48;100.00
6425;BME280;12193;42.642;23.384;2024-03-02T14:11:24;59546.94;;;-140.48;100.00
6425;BME280;12193;42.642;23.384;2024-03-02T14:13:53;59546.94;;;-140.48;100.00
6425;BME280;12193;42.642;23.384;2024-03-02T14:16:23;59546.94;;;-140.48;100.00
6425;BME280;12193;42.642;23.384;2024-03-02T14:18:52;59546.94;;;-140.48;100.00
6425;BME280;12193;42.642;23.384;2024-03-02T14:21:21;59546.94;;;-140.48;100.00
6425;BME280;12193;42.642;23.384;2024-03-02T14:23:50;59546.94;;;-140.48;100.00
6425;BME280;12193;42.642;23.384;2024-03-02T14:26:20;59546.94;;;-140.48;100.00
6425;BME280;12193;42.642;23.384;2024-03-02T14:28:51;59546.94;;;-140.48;100.00
6425;BME280;12193;42.642;23.384;2024-03-02T14:31:21;59546.94;;;-140.48;100.00
6425;BME280;12193;42.642;23.384;2024-03-02T14:33:50;59546.94;;;-140.48;100.00
6425;BME280;12193;42.642;23.384;2024-03-02T14:36:20;59546.94;;;-140.48;100.00
6425;BME280;12193;42.642;23.384;2024-03-02T14:38:49;59546.94;;;-140.48;100.00
6425;BME280;12193;42.642;23.384;2024-03-02T14:41:19;59546.94;;;-140.48;100.00
6425;BME280;12193;42.642;23.384;2024-03-02T14:43:52;59546.94;;;-140.48;100.00
6425;BME280;12193;42.642;23.384;2024-03-02T14:46:21;59546.94;;;-140.48;100.00
6425;BME280;12193;42.642;23.384;2024-03-02T14:48:51;59546.94;;;-140.48;100.00
6425;BME280;12193;42.642;23.384;2024-03-02T14:51:20;59546.94;;;-140.48;100.00
6425;BME280;12193;42.642;23.384;2024-03-02T14:53:49;59546.94;;;-140.48;100.00
6425;BME280;12193;42.642;23.384;2024-03-02T14:56:19;59546.94;;;-140.48;100.00
6425;BME280;12193;42.642;23.384;2024-03-02T14:58:48;59546.94;;;-140.48;100.00
6425;BME280;12193;42.642;23.384;2024-03-02T15:01:20;59546.94;;;-140.48;100.00
6425;BME280;12193;42.642;23.384;2024-03-02T15:03:50;59546.94;;;-140.48;100.00
6425;BME280;12193;42.642;23.384;2024-03-02T15:06:20;59546.94;;;-140.48;100.00
6425;BME280;12193;42.642;23.384;2024-03-02T15:08:49;59546.94;;;-140.48;100.00
6425;BME280;12193;42.642;23.384;2024-03-02T15:11:20;59546.94;;;-140.48;100.00
6425;BME280;12193;42.642;23.384;2024-03-02T15:13:51;59546.94;;;-140.48;100.00
6425;BME280;12193;42.642;23.384;2024-03-02T15:16:23;59546.94;;;-140.48;100.00
6425;BME280;12193;42.642;23.384;2024-03-02T15:18:52;59546.94;;;-140.48;100.00
6425;BME280;12193;42.642;23.384;2024-03-02T15:21:21;59546.94;;;-140.48;100.00
6425;BME280;12193;42.642;23.384;2024-03-02T15:23:50;59546.94;;;-140.48;100.00
6425;BME280;12193;42.642;23.384;2024-03-02T15:26:19;59546.94;;;-140.48;100.00
6425;BME280;12193;42.642;23.384;2024-03-02T15:28:48;59546.94;;;-140.48;100.00
6425;BME280;12193;42.642;23.384;2024-03-02T15:31:22;59546.94;;;-140.48;100.00
6425;BME280;12193;42.642;23.384;2024-03-02T15:33:51;59546.94;;;-140.48;100.00
6425;BME280;12193;42.642;23.384;2024-03-02T15:36:21;59546.94;;;-140.48;100.00
6425;BME280;12193;42.642;23.384;2024-03-02T15:38:50;59546.94;;;-140.48;100.00
6425;BME280;12193;42.642;23.384;2024-03-02T15:41:19;59546.94;;;-140.48;100.00
6425;BME280;12193;42.642;23.384;2024-03-02T15:43:49;59546.94;;;-140.48;100.00
6425;BME280;12193;42.642;23.384;2024-03-02T15:46:18;59546.94;;;-140.48;100.00
6425;BME280;12193;42.642;23.384;2024-03-02T15:48:50;59546.94;;;-140.48;100.00
6425;BME280;12193;42.642;23.384;2024-03-02T15:51:19;59546.94;;;-140.48;100.00
6425;BME280;12193;42.642;23.384;2024-03-02T15:53:48;59546.94;;;-140.48;100.00
6425;BME280;12193;42.642;23.384;2024-03-02T15:56:17;59546.94;;;-140.48;100.00